Covert, Michigan
Current Conditions -  °F | °C
As of 1:35 AM on Saturday 25 Oct 2014 (Local Time) from KLWA Reporting Station
Overcast Overcast  
Wind Chill: 54°   Ceiling: 6500
Heat Index: 54°   Visibility: 10mi
Dew Point: 50°   Wind: 3mph
Humidity: 86%   Direction: 220°SW
Pressure: 29.92"   Gusts: NA
Location:  42.29°N, 86.26°W
Report Text: KLWA 250535Z AUTO 22003KT 10SM OVC065 12/10 A2992 RMK AO2 T01220100
Loading
Personal Weather Stations






























Interactive Weather Map New forecast layout! Learn more

10-Day Weather Forecast

Advertisements
Track Severe Weather on mobile